Time;durP1;ratioP1;P1;durP2;ratioP2;P2;SDS_P1;SDS_P2;PMS_P1;PMS_P2;Temp;Humidity;BMP_temperature;BMP_pressure;BME280_temperature;BME280_humidity;BME280_pressure;Samples;Min_cycle;Max_cycle;Signal;HPM_P1;HPM_P2
2023/12/15 00:00:56;;;;;;;;;;;6.30;99.90;;;;;;5061566;28;19913;-81
2023/12/15 00:03:22;;;;;;;;;;;6.30;99.90;;;;;;5046628;28;20047;-81
2023/12/15 00:05:47;;;;;;;;;;;6.30;99.90;;;;;;5032660;28;19999;-81
2023/12/15 00:08:13;;;;;;;;;;;6.40;99.90;;;;;;5046314;28;20418;-81
2023/12/15 00:10:38;;;;;;;;;;;6.30;99.90;;;;;;5047069;28;19913;-81
2023/12/15 00:13:04;;;;;;;;;;;6.30;99.90;;;;;;5049964;28;19919;-81
2023/12/15 00:15:29;;;;;;;;;;;6.40;99.90;;;;;;5051263;28;19912;-81
2023/12/15 00:17:55;;;;;;;;;;;6.40;99.90;;;;;;5032619;28;20498;-82
2023/12/15 00:20:20;;;;;;;;;;;6.40;99.90;;;;;;5032525;28;19947;-81
2023/12/15 00:22:46;;;;;;;;;;;6.20;99.90;;;;;;5031724;28;19922;-82
2023/12/15 00:25:11;;;;;;;;;;;6.10;99.90;;;;;;5049408;28;19916;-82
2023/12/15 00:27:37;;;;;;;;;;;6.10;99.90;;;;;;5033341;28;19912;-82
2023/12/15 00:30:03;;;;;;;;;;;6.20;99.90;;;;;;5049209;28;20463;-83
2023/12/15 00:32:28;;;;;;;;;;;6.10;99.90;;;;;;5032910;28;20359;-82
2023/12/15 00:34:54;;;;;;;;;;;6.00;99.90;;;;;;5050085;28;20003;-82
2023/12/15 00:37:20;;;;;;;;;;;6.00;99.90;;;;;;5050389;28;19912;-81
2023/12/15 00:39:46;;;;;;;;;;;6.00;99.90;;;;;;5049173;28;19925;-81
2023/12/15 00:42:12;;;;;;;;;;;6.00;99.90;;;;;;5049290;28;19975;-82
2023/12/15 00:44:37;;;;;;;;;;;6.10;99.90;;;;;;5048829;28;21412;-81
2023/12/15 00:47:03;;;;;;;;;;;6.10;99.90;;;;;;5048741;28;19917;-80
2023/12/15 00:49:29;;;;;;;;;;;6.10;99.90;;;;;;5049248;28;21493;-80
2023/12/15 00:51:54;;;;;;;;;;;6.20;99.90;;;;;;5031176;28;19956;-81
2023/12/15 00:54:20;;;;;;;;;;;6.10;99.90;;;;;;5030814;28;20493;-81
2023/12/15 00:56:45;;;;;;;;;;;6.20;99.90;;;;;;5048950;28;19912;-81
2023/12/15 00:59:11;;;;;;;;;;;6.20;99.90;;;;;;5048271;28;19912;-81
2023/12/15 01:01:36;;;;;;;;;;;6.20;99.90;;;;;;5048289;28;19935;-79
2023/12/15 01:04:02;;;;;;;;;;;6.10;99.90;;;;;;5048315;28;20449;-80
2023/12/15 01:06:27;;;;;;;;;;;6.10;99.90;;;;;;5048936;28;19973;-80
2023/12/15 01:08:53;;;;;;;;;;;6.10;99.90;;;;;;5048650;28;20003;-80
2023/12/15 01:11:19;;;;;;;;;;;6.10;99.90;;;;;;5048245;28;20458;-80
2023/12/15 01:13:44;;;;;;;;;;;6.10;99.90;;;;;;5032276;28;20608;-81
2023/12/15 01:16:10;;;;;;;;;;;6.10;99.90;;;;;;5048011;28;19916;-80
2023/12/15 01:18:35;;;;;;;;;;;6.10;99.90;;;;;;5048101;28;19912;-81
2023/12/15 01:21:01;;;;;;;;;;;6.10;99.90;;;;;;5062004;28;19912;-80
2023/12/15 01:23:27;;;;;;;;;;;6.00;99.90;;;;;;5024345;28;19916;-80
2023/12/15 01:25:52;;;;;;;;;;;6.10;99.90;;;;;;5048560;28;20441;-79
2023/12/15 01:28:18;;;;;;;;;;;6.10;99.90;;;;;;5032938;28;19913;-80
2023/12/15 01:30:43;;;;;;;;;;;6.10;99.90;;;;;;5047618;28;19947;-81
2023/12/15 01:33:09;;;;;;;;;;;6.10;99.90;;;;;;5034822;28;19952;-80
2023/12/15 01:35:34;;;;;;;;;;;6.10;99.90;;;;;;5047962;28;19998;-81
2023/12/15 01:38:00;;;;;;;;;;;6.10;99.90;;;;;;5033860;28;19912;-81
2023/12/15 01:40:25;;;;;;;;;;;6.10;99.90;;;;;;5048705;28;19912;-81
2023/12/15 01:42:51;;;;;;;;;;;6.10;99.90;;;;;;5048093;28;19912;-81
2023/12/15 01:45:16;;;;;;;;;;;6.20;99.90;;;;;;5048162;28;19912;-81
2023/12/15 01:47:42;;;;;;;;;;;6.10;99.90;;;;;;5031287;28;19919;-81
2023/12/15 01:50:08;;;;;;;;;;;6.10;99.90;;;;;;5048515;28;20758;-81
2023/12/15 01:52:34;;;;;;;;;;;6.10;99.90;;;;;;5038234;28;20580;-81
2023/12/15 01:54:59;;;;;;;;;;;6.20;99.90;;;;;;5048518;28;19919;-81
2023/12/15 01:57:25;;;;;;;;;;;6.10;99.90;;;;;;5049007;28;19913;-81
2023/12/15 01:59:51;;;;;;;;;;;6.10;99.90;;;;;;5030621;28;19923;-81
2023/12/15 02:02:17;;;;;;;;;;;6.10;99.90;;;;;;5047292;28;20397;-81
2023/12/15 02:04:42;;;;;;;;;;;6.10;99.90;;;;;;5047793;28;19920;-80
2023/12/15 02:07:08;;;;;;;;;;;6.10;99.90;;;;;;5048229;28;19990;-80
2023/12/15 02:09:34;;;;;;;;;;;6.10;99.90;;;;;;5046939;28;20011;-81
2023/12/15 02:12:00;;;;;;;;;;;6.10;99.90;;;;;;5030950;28;20447;-81
2023/12/15 02:14:25;;;;;;;;;;;6.00;99.90;;;;;;5047798;28;19913;-80
2023/12/15 02:16:51;;;;;;;;;;;5.90;99.90;;;;;;5048460;28;19999;-80
2023/12/15 02:19:17;;;;;;;;;;;5.90;99.90;;;;;;5047360;28;19912;-80
2023/12/15 02:21:42;;;;;;;;;;;6.00;99.90;;;;;;5047837;28;19956;-79
2023/12/15 02:24:08;;;;;;;;;;;6.00;99.90;;;;;;5047058;28;19923;-79
2023/12/15 02:26:33;;;;;;;;;;;6.00;99.90;;;;;;5043457;28;19912;-80
2023/12/15 02:28:59;;;;;;;;;;;5.90;99.90;;;;;;5046097;28;20322;-80
2023/12/15 02:31:24;;;;;;;;;;;5.90;99.90;;;;;;5047625;28;20007;-80
2023/12/15 02:33:50;;;;;;;;;;;5.90;99.90;;;;;;5046927;28;19917;-80
2023/12/15 02:36:19;;;;;;;;;;;6.00;99.90;;;;;;5047038;28;19916;-80
2023/12/15 02:38:45;;;;;;;;;;;6.10;99.90;;;;;;5046158;28;19975;-81
2023/12/15 02:41:11;;;;;;;;;;;6.00;99.90;;;;;;5046910;28;19912;-82
2023/12/15 02:43:36;;;;;;;;;;;6.00;99.90;;;;;;5046614;28;19916;-84
2023/12/15 02:46:02;;;;;;;;;;;6.00;99.90;;;;;;5047650;28;20423;-82
2023/12/15 02:48:27;;;;;;;;;;;6.00;99.90;;;;;;5046732;28;20025;-81
2023/12/15 02:50:53;;;;;;;;;;;6.00;99.90;;;;;;5029321;28;19912;-81
2023/12/15 02:53:18;;;;;;;;;;;5.90;99.90;;;;;;5046491;28;20371;-81
2023/12/15 02:55:44;;;;;;;;;;;5.80;99.90;;;;;;5061574;28;19943;-81
2023/12/15 02:58:10;;;;;;;;;;;5.80;99.90;;;;;;5046419;28;19939;-81
2023/12/15 03:00:35;;;;;;;;;;;5.80;99.90;;;;;;5045318;28;19935;-82
2023/12/15 03:03:01;;;;;;;;;;;5.90;99.90;;;;;;5046301;28;19991;-82
2023/12/15 03:05:26;;;;;;;;;;;5.90;99.90;;;;;;5046696;28;20057;-81
2023/12/15 03:07:52;;;;;;;;;;;5.70;99.90;;;;;;5047035;28;20361;-82
2023/12/15 03:10:18;;;;;;;;;;;5.80;99.90;;;;;;5047252;28;20432;-81
2023/12/15 03:12:43;;;;;;;;;;;5.80;99.90;;;;;;5046796;28;19913;-82
2023/12/15 03:15:09;;;;;;;;;;;5.80;99.90;;;;;;5045377;28;19912;-82
2023/12/15 03:17:34;;;;;;;;;;;5.70;99.90;;;;;;5046492;28;19963;-82
2023/12/15 03:20:00;;;;;;;;;;;5.70;99.90;;;;;;5046381;28;20213;-82
2023/12/15 03:22:26;;;;;;;;;;;5.70;99.90;;;;;;5034802;28;19919;-83
2023/12/15 03:24:51;;;;;;;;;;;5.80;99.90;;;;;;5044443;28;19921;-82
2023/12/15 03:27:17;;;;;;;;;;;5.90;99.90;;;;;;5046172;28;19917;-80
2023/12/15 03:29:43;;;;;;;;;;;5.90;99.90;;;;;;5046428;28;20759;-82
2023/12/15 03:32:08;;;;;;;;;;;5.90;99.90;;;;;;5046413;28;19928;-82
2023/12/15 03:34:34;;;;;;;;;;;5.80;99.90;;;;;;5045033;28;19917;-81
2023/12/15 03:36:59;;;;;;;;;;;5.70;99.90;;;;;;5046351;28;19958;-82
2023/12/15 03:39:25;;;;;;;;;;;5.70;99.90;;;;;;5028359;28;19913;-83
2023/12/15 03:41:50;;;;;;;;;;;5.70;99.90;;;;;;5046004;28;20353;-81
2023/12/15 03:44:16;;;;;;;;;;;5.80;99.90;;;;;;5028391;28;20736;-81
2023/12/15 03:46:41;;;;;;;;;;;5.80;99.90;;;;;;5049048;28;19955;-80
2023/12/15 03:49:07;;;;;;;;;;;5.80;99.90;;;;;;5032532;28;19978;-81
2023/12/15 03:51:33;;;;;;;;;;;5.90;99.90;;;;;;5050204;28;19912;-81
2023/12/15 03:53:58;;;;;;;;;;;5.80;99.90;;;;;;5031343;28;19920;-79
2023/12/15 03:56:25;;;;;;;;;;;5.90;99.90;;;;;;5049953;28;19916;-79
2023/12/15 03:58:50;;;;;;;;;;;5.90;99.90;;;;;;5050312;28;20265;-79
2023/12/15 04:01:16;;;;;;;;;;;5.90;99.90;;;;;;5049046;28;19922;-79
2023/12/15 04:03:41;;;;;;;;;;;6.00;99.90;;;;;;5050559;28;19924;-79
2023/12/15 04:06:10;;;;;;;;;;;6.00;99.90;;;;;;5050090;28;20466;-80
2023/12/15 04:08:35;;;;;;;;;;;6.00;99.90;;;;;;5049831;28;19912;-80
2023/12/15 04:11:01;;;;;;;;;;;5.90;99.90;;;;;;5049893;28;19912;-80
2023/12/15 04:13:27;;;;;;;;;;;5.90;99.90;;;;;;5032718;28;20360;-81
2023/12/15 04:15:52;;;;;;;;;;;5.90;99.90;;;;;;5049645;28;19913;-81
2023/12/15 04:18:18;;;;;;;;;;;5.80;99.90;;;;;;5050294;28;20030;-81
2023/12/15 04:20:43;;;;;;;;;;;5.80;99.90;;;;;;5049599;28;19912;-82
2023/12/15 04:23:09;;;;;;;;;;;5.80;99.90;;;;;;5050018;28;19912;-82
2023/12/15 04:25:35;;;;;;;;;;;5.80;99.90;;;;;;5033097;28;19916;-81
2023/12/15 04:28:00;;;;;;;;;;;5.70;99.90;;;;;;5050366;28;19987;-81
2023/12/15 04:30:26;;;;;;;;;;;5.70;99.90;;;;;;5049876;28;20658;-81
2023/12/15 04:32:51;;;;;;;;;;;5.60;99.90;;;;;;5050403;28;20387;-82
2023/12/15 04:35:17;;;;;;;;;;;5.60;99.90;;;;;;5050159;28;19916;-81
2023/12/15 04:37:44;;;;;;;;;;;5.60;99.90;;;;;;5049625;28;20015;-81
2023/12/15 04:40:10;;;;;;;;;;;5.80;99.90;;;;;;5049268;28;19916;-82
2023/12/15 04:42:36;;;;;;;;;;;5.80;99.90;;;;;;5049768;28;19913;-83
2023/12/15 04:45:04;;;;;;;;;;;5.70;99.90;;;;;;5034608;28;20967;-83
2023/12/15 04:47:30;;;;;;;;;;;5.80;99.90;;;;;;5034271;28;20050;-83
2023/12/15 04:49:55;;;;;;;;;;;5.80;99.90;;;;;;5032194;28;20005;-83
2023/12/15 04:52:21;;;;;;;;;;;5.70;99.90;;;;;;5049311;28;19919;-83
2023/12/15 04:54:46;;;;;;;;;;;5.80;99.90;;;;;;5049283;28;19916;-81
2023/12/15 04:57:12;;;;;;;;;;;5.80;99.90;;;;;;5049042;28;19913;-83
2023/12/15 04:59:40;;;;;;;;;;;5.70;99.90;;;;;;5047711;28;20339;-81
2023/12/15 05:02:06;;;;;;;;;;;5.70;99.90;;;;;;5033696;28;19913;-85
2023/12/15 05:04:31;;;;;;;;;;;5.70;99.90;;;;;;5034488;28;19912;-81
2023/12/15 05:06:57;;;;;;;;;;;5.60;99.90;;;;;;5031085;28;19923;-82
2023/12/15 05:09:22;;;;;;;;;;;5.60;99.90;;;;;;5048130;28;19915;-82
2023/12/15 05:11:48;;;;;;;;;;;5.70;99.90;;;;;;5048004;28;19918;-82
2023/12/15 05:14:13;;;;;;;;;;;5.70;99.90;;;;;;5048947;28;20462;-82
2023/12/15 05:16:39;;;;;;;;;;;5.70;99.90;;;;;;5032305;28;19909;-82
2023/12/15 05:19:05;;;;;;;;;;;5.60;99.90;;;;;;5048728;28;19913;-84
2023/12/15 05:21:30;;;;;;;;;;;5.60;99.90;;;;;;5030378;28;19909;-84
2023/12/15 05:23:58;;;;;;;;;;;5.70;99.90;;;;;;5030472;28;19964;-82
2023/12/15 05:26:25;;;;;;;;;;;5.90;99.90;;;;;;5031294;28;19908;-82
2023/12/15 05:28:51;;;;;;;;;;;5.90;99.90;;;;;;5030749;28;20443;-82
2023/12/15 05:31:16;;;;;;;;;;;5.90;99.90;;;;;;5048918;28;19956;-83
2023/12/15 05:33:42;;;;;;;;;;;6.00;99.90;;;;;;5048297;28;19913;-82
2023/12/15 05:36:15;;;;;;;;;;;5.90;99.90;;;;;;5031329;28;19912;-82
2023/12/15 05:38:41;;;;;;;;;;;6.00;99.90;;;;;;5034707;28;19913;-86
2023/12/15 05:41:07;;;;;;;;;;;6.00;99.90;;;;;;5043336;28;19913;-87
2023/12/15 05:43:32;;;;;;;;;;;5.90;99.90;;;;;;5048380;28;20392;-87
2023/12/15 05:45:58;;;;;;;;;;;5.90;99.90;;;;;;5030135;28;20454;-82
2023/12/15 05:48:24;;;;;;;;;;;5.90;99.90;;;;;;5040855;28;19913;-80
2023/12/15 05:50:49;;;;;;;;;;;5.90;99.90;;;;;;5045880;28;20013;-79
2023/12/15 05:53:15;;;;;;;;;;;5.90;99.90;;;;;;5044020;28;19991;-81
2023/12/15 05:55:40;;;;;;;;;;;5.90;99.90;;;;;;5048512;28;19995;-84
2023/12/15 05:58:06;;;;;;;;;;;5.90;99.90;;;;;;5030334;28;19975;-83
2023/12/15 06:00:31;;;;;;;;;;;6.00;99.90;;;;;;5047358;28;19914;-84
2023/12/15 06:02:57;;;;;;;;;;;6.00;99.90;;;;;;5031762;28;19909;-87
2023/12/15 06:05:22;;;;;;;;;;;5.90;99.90;;;;;;5032133;28;20039;-86
2023/12/15 06:07:48;;;;;;;;;;;5.80;99.90;;;;;;5028443;28;19948;-85
2023/12/15 06:10:13;;;;;;;;;;;5.90;99.90;;;;;;5029964;28;19920;-87
2023/12/15 06:12:39;;;;;;;;;;;5.80;99.90;;;;;;5034666;28;19913;-90
2023/12/15 06:15:06;;;;;;;;;;;5.70;99.90;;;;;;5030420;28;19958;-86
2023/12/15 06:17:31;;;;;;;;;;;5.70;99.90;;;;;;5031133;28;20663;-83
2023/12/15 06:19:57;;;;;;;;;;;5.60;99.90;;;;;;5047878;28;20070;-84
2023/12/15 06:22:22;;;;;;;;;;;5.50;99.90;;;;;;5034137;28;19913;-81
2023/12/15 06:24:48;;;;;;;;;;;5.50;99.90;;;;;;5046880;28;20395;-82
2023/12/15 06:27:13;;;;;;;;;;;5.50;99.90;;;;;;5047735;28;20543;-83
2023/12/15 06:29:40;;;;;;;;;;;5.50;99.90;;;;;;5047617;28;20007;-83
2023/12/15 06:32:06;;;;;;;;;;;5.60;99.90;;;;;;5029069;28;20649;-83
2023/12/15 06:34:32;;;;;;;;;;;5.60;99.90;;;;;;5047279;28;20186;-83
2023/12/15 06:36:57;;;;;;;;;;;5.60;99.90;;;;;;5048061;28;19917;-83
2023/12/15 06:39:23;;;;;;;;;;;5.60;99.90;;;;;;5029908;28;19934;-82
2023/12/15 06:41:48;;;;;;;;;;;5.70;99.90;;;;;;5046025;28;19937;-83
2023/12/15 06:44:14;;;;;;;;;;;5.70;99.90;;;;;;5047209;28;19923;-84
2023/12/15 06:46:40;;;;;;;;;;;5.70;99.90;;;;;;5047082;28;19921;-84
2023/12/15 06:49:05;;;;;;;;;;;5.80;99.90;;;;;;5029497;28;19912;-84
2023/12/15 06:51:31;;;;;;;;;;;5.90;99.90;;;;;;5047518;28;19912;-85
2023/12/15 06:53:56;;;;;;;;;;;5.90;99.90;;;;;;5047348;28;19913;-84
2023/12/15 06:56:22;;;;;;;;;;;6.00;99.90;;;;;;5046283;28;19913;-84
2023/12/15 06:58:47;;;;;;;;;;;6.00;99.90;;;;;;5044569;28;19912;-83
2023/12/15 07:01:13;;;;;;;;;;;6.10;99.90;;;;;;5031661;28;20413;-84
2023/12/15 07:03:39;;;;;;;;;;;6.10;99.90;;;;;;5038654;28;19987;-86
2023/12/15 07:06:05;;;;;;;;;;;6.20;99.90;;;;;;5047287;28;19951;-85
2023/12/15 07:08:31;;;;;;;;;;;6.20;99.90;;;;;;5037505;28;19942;-83
2023/12/15 07:10:56;;;;;;;;;;;6.20;99.90;;;;;;5047580;28;19988;-84
2023/12/15 07:13:22;;;;;;;;;;;6.20;99.90;;;;;;5048709;28;19995;-85
2023/12/15 07:15:47;;;;;;;;;;;6.20;99.90;;;;;;5031204;28;19920;-85
2023/12/15 07:18:13;;;;;;;;;;;6.20;99.90;;;;;;5048818;28;19912;-84
2023/12/15 07:20:38;;;;;;;;;;;6.20;99.90;;;;;;5047569;28;19923;-86
2023/12/15 07:23:04;;;;;;;;;;;6.30;99.90;;;;;;5031671;28;19913;-86
2023/12/15 07:25:29;;;;;;;;;;;6.30;99.90;;;;;;5047140;28;19919;-87
2023/12/15 07:27:55;;;;;;;;;;;6.30;99.90;;;;;;5029905;28;20382;-87
2023/12/15 07:30:21;;;;;;;;;;;6.30;99.90;;;;;;5062453;28;19923;-87
2023/12/15 07:32:47;;;;;;;;;;;6.20;99.90;;;;;;5046985;28;19908;-87
2023/12/15 07:35:12;;;;;;;;;;;6.30;99.90;;;;;;5046722;28;19951;-86
2023/12/15 07:37:38;;;;;;;;;;;6.30;99.90;;;;;;5028855;28;19909;-87
2023/12/15 07:40:03;;;;;;;;;;;6.20;99.90;;;;;;5029061;28;19974;-86
2023/12/15 07:42:29;;;;;;;;;;;6.20;99.90;;;;;;5028672;28;19943;-86
2023/12/15 07:44:55;;;;;;;;;;;6.10;99.90;;;;;;5029105;28;20448;-87
2023/12/15 07:47:20;;;;;;;;;;;6.20;99.90;;;;;;5047398;28;20101;-87
2023/12/15 07:49:46;;;;;;;;;;;6.20;99.90;;;;;;5029218;28;19908;-87
2023/12/15 07:52:11;;;;;;;;;;;6.20;99.90;;;;;;5046867;28;20375;-86
2023/12/15 07:54:37;;;;;;;;;;;6.20;99.90;;;;;;5047044;28;19919;-87
2023/12/15 07:57:02;;;;;;;;;;;6.30;99.90;;;;;;5046998;28;20725;-87
2023/12/15 07:59:28;;;;;;;;;;;6.30;99.90;;;;;;5046672;28;20284;-87
2023/12/15 08:01:57;;;;;;;;;;;6.40;99.90;;;;;;5028818;28;20328;-86
2023/12/15 08:04:22;;;;;;;;;;;6.30;99.90;;;;;;5028994;28;19920;-87
2023/12/15 08:06:48;;;;;;;;;;;6.40;99.90;;;;;;5029049;28;19982;-86
2023/12/15 08:09:13;;;;;;;;;;;6.50;99.90;;;;;;5028537;28;19908;-87
2023/12/15 08:11:39;;;;;;;;;;;6.60;99.90;;;;;;5029043;28;19947;-87
2023/12/15 08:14:05;;;;;;;;;;;6.50;99.90;;;;;;5032901;28;19909;-88
2023/12/15 08:16:30;;;;;;;;;;;6.50;99.90;;;;;;5028766;28;19915;-87
2023/12/15 08:18:56;;;;;;;;;;;6.60;99.90;;;;;;5046843;28;19909;-86
2023/12/15 08:21:22;;;;;;;;;;;6.60;99.90;;;;;;5047012;28;20247;-85
2023/12/15 08:23:47;;;;;;;;;;;6.50;99.90;;;;;;5046672;28;19962;-85
2023/12/15 08:26:23;;;;;;;;;;;6.40;99.90;;;;;;5029219;28;20793;-87
2023/12/15 08:28:49;;;;;;;;;;;6.40;99.90;;;;;;5029004;28;19908;-88
2023/12/15 08:31:15;;;;;;;;;;;6.40;99.90;;;;;;5029203;28;19927;-87
2023/12/15 08:33:42;;;;;;;;;;;6.50;99.90;;;;;;5034029;28;20693;-87
2023/12/15 08:36:08;;;;;;;;;;;6.50;99.90;;;;;;5052121;28;19908;-87
2023/12/15 08:38:33;;;;;;;;;;;6.60;99.90;;;;;;5051405;28;19917;-87
2023/12/15 08:40:59;;;;;;;;;;;6.60;99.90;;;;;;5051410;28;20023;-87
2023/12/15 08:43:25;;;;;;;;;;;6.50;99.90;;;;;;5032824;28;20393;-87
2023/12/15 08:45:51;;;;;;;;;;;6.50;99.90;;;;;;5032996;28;19908;-87
2023/12/15 08:48:16;;;;;;;;;;;6.50;99.90;;;;;;5032541;28;19954;-87
2023/12/15 08:50:42;;;;;;;;;;;6.70;99.90;;;;;;5037674;28;20569;-86
2023/12/15 08:53:08;;;;;;;;;;;6.70;99.90;;;;;;5049931;28;19916;-88
2023/12/15 08:55:33;;;;;;;;;;;6.80;99.90;;;;;;5032336;28;20415;-86
2023/12/15 08:57:59;;;;;;;;;;;6.80;99.90;;;;;;5031950;28;19915;-88
2023/12/15 09:00:24;;;;;;;;;;;6.90;99.90;;;;;;5032220;28;19909;-87
2023/12/15 09:02:52;;;;;;;;;;;6.90;99.90;;;;;;5050259;28;19908;-87
2023/12/15 09:05:19;;;;;;;;;;;6.90;99.90;;;;;;5049556;28;19956;-88
2023/12/15 09:07:44;;;;;;;;;;;7.00;99.90;;;;;;5031762;28;20775;-87
2023/12/15 09:10:10;;;;;;;;;;;7.10;99.90;;;;;;5049892;28;19913;-87
2023/12/15 09:12:36;;;;;;;;;;;7.20;99.90;;;;;;5031761;28;19909;-88
2023/12/15 09:15:02;;;;;;;;;;;7.30;99.90;;;;;;5038897;28;19909;-88
2023/12/15 09:17:28;;;;;;;;;;;7.40;99.90;;;;;;5031359;28;19956;-87
2023/12/15 09:19:53;;;;;;;;;;;7.40;99.90;;;;;;5057608;28;19952;-88
2023/12/15 09:22:19;;;;;;;;;;;7.70;99.90;;;;;;5031602;28;19909;-87
2023/12/15 09:24:44;;;;;;;;;;;7.70;99.90;;;;;;5049642;28;20016;-87
2023/12/15 09:27:10;;;;;;;;;;;7.60;99.90;;;;;;5031639;28;19962;-87
2023/12/15 09:29:35;;;;;;;;;;;7.70;99.90;;;;;;5031536;28;19909;-88
2023/12/15 09:32:02;;;;;;;;;;;7.40;99.90;;;;;;5031422;28;19920;-86
2023/12/15 09:34:27;;;;;;;;;;;7.40;99.90;;;;;;5031025;28;19908;-88
2023/12/15 09:36:53;;;;;;;;;;;7.60;99.90;;;;;;5031375;28;19915;-88
2023/12/15 09:39:20;;;;;;;;;;;7.90;99.90;;;;;;5030435;28;19909;-87
2023/12/15 09:41:49;;;;;;;;;;;8.10;99.90;;;;;;5049136;28;19909;-88
2023/12/15 09:44:15;;;;;;;;;;;8.40;99.90;;;;;;5048142;28;19978;-87
2023/12/15 09:46:42;;;;;;;;;;;8.50;99.90;;;;;;5025929;28;20481;-87
2023/12/15 09:49:08;;;;;;;;;;;8.20;99.90;;;;;;5036425;28;20031;-88
2023/12/15 09:51:36;;;;;;;;;;;8.40;99.90;;;;;;5049025;28;19962;-87
2023/12/15 09:54:01;;;;;;;;;;;8.30;99.90;;;;;;5019946;28;19908;-87
2023/12/15 09:56:27;;;;;;;;;;;8.30;99.90;;;;;;5032080;28;19919;-87
2023/12/15 09:58:53;;;;;;;;;;;8.20;99.90;;;;;;5049640;28;19916;-87
2023/12/15 10:01:19;;;;;;;;;;;8.00;99.90;;;;;;5048685;28;19909;-87
2023/12/15 10:03:45;;;;;;;;;;;8.60;99.90;;;;;;5038802;28;19922;-87
2023/12/15 10:06:10;;;;;;;;;;;8.70;99.90;;;;;;5049317;28;20126;-87
2023/12/15 10:08:43;;;;;;;;;;;8.80;99.90;;;;;;5049126;28;19909;-87
2023/12/15 10:11:09;;;;;;;;;;;9.30;99.90;;;;;;5048374;28;19908;-87
2023/12/15 10:13:34;;;;;;;;;;;9.60;99.90;;;;;;5030054;28;19915;-87
2023/12/15 10:16:00;;;;;;;;;;;9.50;99.90;;;;;;5042873;28;19915;-87
2023/12/15 10:18:26;;;;;;;;;;;9.90;99.90;;;;;;5048430;28;20459;-87
2023/12/15 10:20:53;;;;;;;;;;;10.10;99.90;;;;;;5047853;28;19919;-87
2023/12/15 10:23:25;;;;;;;;;;;10.60;99.90;;;;;;5030141;28;19916;-86
2023/12/15 10:25:51;;;;;;;;;;;10.60;99.90;;;;;;5029575;28;19947;-87
2023/12/15 10:28:16;;;;;;;;;;;10.20;99.90;;;;;;5048550;28;19913;-87
2023/12/15 10:30:42;;;;;;;;;;;9.80;99.90;;;;;;5030208;28;19967;-87
2023/12/15 10:33:07;;;;;;;;;;;9.60;99.90;;;;;;5048239;28;19923;-87
2023/12/15 10:35:34;;;;;;;;;;;9.60;99.90;;;;;;5029503;28;20382;-87
2023/12/15 10:38:00;;;;;;;;;;;9.80;99.90;;;;;;5046856;28;19915;-88
2023/12/15 10:40:25;;;;;;;;;;;10.00;99.90;;;;;;5029735;28;19909;-87
2023/12/15 10:42:51;;;;;;;;;;;10.00;99.90;;;;;;5030762;28;19947;-87
2023/12/15 10:45:17;;;;;;;;;;;9.90;99.90;;;;;;5029808;28;19966;-86
2023/12/15 10:47:43;;;;;;;;;;;9.90;99.90;;;;;;5030069;28;19955;-87
2023/12/15 10:50:09;;;;;;;;;;;9.70;99.90;;;;;;5029605;28;19995;-87
2023/12/15 10:52:39;;;;;;;;;;;9.60;99.90;;;;;;5029163;28;19917;-86
2023/12/15 10:55:06;;;;;;;;;;;9.80;99.90;;;;;;5029024;28;20478;-86
2023/12/15 10:57:32;;;;;;;;;;;9.80;99.90;;;;;;5030365;28;19943;-85
2023/12/15 10:59:58;;;;;;;;;;;9.90;99.90;;;;;;5047876;28;20445;-86
2023/12/15 11:02:27;;;;;;;;;;;9.70;99.90;;;;;;5047975;28;19916;-85
2023/12/15 11:04:57;;;;;;;;;;;9.60;99.90;;;;;;5047118;28;19919;-86
2023/12/15 11:07:24;;;;;;;;;;;9.70;99.90;;;;;;5047207;28;19908;-85
2023/12/15 11:09:50;;;;;;;;;;;10.00;99.90;;;;;;5029926;28;19955;-86
2023/12/15 11:12:22;;;;;;;;;;;9.90;99.90;;;;;;5031251;28;19909;-87
2023/12/15 11:15:02;;;;;;;;;;;9.70;99.90;;;;;;5047938;28;20382;-85
2023/12/15 11:17:28;;;;;;;;;;;9.60;99.90;;;;;;5048295;28;19909;-85
2023/12/15 11:20:11;;;;;;;;;;;9.40;99.90;;;;;;5030332;28;19934;-86
2023/12/15 11:23:01;;;;;;;;;;;9.40;99.90;;;;;;5029581;28;19908;-86
2023/12/15 11:25:31;;;;;;;;;;;9.40;99.90;;;;;;5036193;28;19913;-86
2023/12/15 11:28:09;;;;;;;;;;;9.40;99.90;;;;;;5029747;28;19958;-86
2023/12/15 11:30:36;;;;;;;;;;;9.30;99.90;;;;;;5029012;28;19994;-86
2023/12/15 11:33:27;;;;;;;;;;;9.30;99.90;;;;;;5029297;28;19908;-86
2023/12/15 11:35:54;;;;;;;;;;;9.40;99.90;;;;;;5023050;28;19908;-86
2023/12/15 11:38:23;;;;;;;;;;;9.30;99.90;;;;;;5046789;28;20273;-85
2023/12/15 11:40:48;;;;;;;;;;;9.40;99.90;;;;;;5047378;28;20449;-86
2023/12/15 11:43:14;;;;;;;;;;;9.40;99.90;;;;;;5047257;28;19999;-85
2023/12/15 11:45:42;;;;;;;;;;;9.40;99.90;;;;;;5047053;28;20400;-86
2023/12/15 11:48:11;;;;;;;;;;;9.30;99.90;;;;;;5027918;28;19913;-86
2023/12/15 11:50:42;;;;;;;;;;;9.20;99.90;;;;;;5028776;28;19908;-85
2023/12/15 11:53:09;;;;;;;;;;;9.20;99.90;;;;;;5028744;28;19920;-86
2023/12/15 11:55:35;;;;;;;;;;;9.40;99.90;;;;;;5029114;28;20011;-86
2023/12/15 11:58:02;;;;;;;;;;;9.40;99.90;;;;;;5047217;28;19991;-85
2023/12/15 12:00:28;;;;;;;;;;;9.40;99.90;;;;;;5028832;28;20374;-85
2023/12/15 12:02:55;;;;;;;;;;;9.40;99.90;;;;;;5034141;28;19920;-85
2023/12/15 12:05:20;;;;;;;;;;;9.30;99.90;;;;;;5029229;28;19919;-85
2023/12/15 12:07:46;;;;;;;;;;;9.20;99.90;;;;;;5049795;28;19909;-86
2023/12/15 12:10:11;;;;;;;;;;;9.40;99.90;;;;;;5050957;28;20391;-85
2023/12/15 12:12:37;;;;;;;;;;;9.30;99.90;;;;;;5051270;28;19999;-85
2023/12/15 12:15:07;;;;;;;;;;;9.30;99.90;;;;;;5040907;28;19966;-85
2023/12/15 12:17:33;;;;;;;;;;;9.30;99.90;;;;;;5050393;28;20400;-85
2023/12/15 12:20:11;;;;;;;;;;;9.20;99.90;;;;;;5032374;28;20295;-86
2023/12/15 12:22:41;;;;;;;;;;;9.30;99.90;;;;;;5032497;28;19978;-85
2023/12/15 12:25:06;;;;;;;;;;;9.30;99.90;;;;;;5050750;28;19913;-87
2023/12/15 12:27:35;;;;;;;;;;;9.10;99.90;;;;;;5032317;28;20329;-85
2023/12/15 12:30:01;;;;;;;;;;;9.10;99.90;;;;;;5052049;28;19908;-85
2023/12/15 12:32:26;;;;;;;;;;;9.20;99.90;;;;;;5052121;28;19913;-85
2023/12/15 12:34:52;;;;;;;;;;;9.20;99.90;;;;;;5033442;28;19909;-85
2023/12/15 12:37:18;;;;;;;;;;;9.40;99.90;;;;;;5033339;28;19920;-85
2023/12/15 12:39:43;;;;;;;;;;;9.40;99.90;;;;;;5032865;28;19908;-85
2023/12/15 12:42:09;;;;;;;;;;;9.40;99.90;;;;;;5050803;28;20449;-85
2023/12/15 12:44:35;;;;;;;;;;;9.60;99.90;;;;;;5032204;28;19913;-85
2023/12/15 12:47:00;;;;;;;;;;;9.60;99.90;;;;;;5046850;28;19908;-85
2023/12/15 12:49:26;;;;;;;;;;;9.60;99.90;;;;;;5040109;28;19908;-86
2023/12/15 12:51:52;;;;;;;;;;;9.70;99.90;;;;;;5031998;28;19931;-86
2023/12/15 12:54:17;;;;;;;;;;;9.70;99.90;;;;;;5049341;28;19912;-85
2023/12/15 12:56:43;;;;;;;;;;;9.60;99.90;;;;;;5050254;28;19909;-85
2023/12/15 12:59:10;;;;;;;;;;;9.70;99.90;;;;;;5031853;28;19915;-85
2023/12/15 13:01:36;;;;;;;;;;;9.80;99.90;;;;;;5031653;28;20007;-86
2023/12/15 13:04:01;;;;;;;;;;;9.80;99.90;;;;;;5049755;28;19912;-85
2023/12/15 13:06:27;;;;;;;;;;;9.80;99.90;;;;;;5049756;28;19992;-85
2023/12/15 13:08:52;;;;;;;;;;;9.60;99.90;;;;;;5049450;28;19908;-85
2023/12/15 13:11:18;;;;;;;;;;;9.70;99.90;;;;;;5031954;28;19916;-86
2023/12/15 13:13:44;;;;;;;;;;;9.90;99.90;;;;;;5033138;28;19908;-86
2023/12/15 13:16:10;;;;;;;;;;;9.90;99.90;;;;;;5035081;28;19913;-87
2023/12/15 13:18:36;;;;;;;;;;;9.80;99.90;;;;;;5031648;28;19958;-86
2023/12/15 13:21:02;;;;;;;;;;;10.00;99.90;;;;;;5031433;28;19909;-84
2023/12/15 13:23:28;;;;;;;;;;;10.00;99.90;;;;;;5049524;28;19944;-85
2023/12/15 13:25:54;;;;;;;;;;;10.00;99.90;;;;;;5049440;28;19913;-85
2023/12/15 13:28:20;;;;;;;;;;;10.10;99.90;;;;;;5049436;28;19915;-85
2023/12/15 13:30:46;;;;;;;;;;;9.80;99.90;;;;;;5049172;28;20005;-85
2023/12/15 13:33:12;;;;;;;;;;;9.60;99.90;;;;;;5049390;28;19908;-85
2023/12/15 13:35:38;;;;;;;;;;;9.40;99.90;;;;;;5049626;28;19912;-85
2023/12/15 13:38:04;;;;;;;;;;;9.30;99.90;;;;;;5049520;28;19908;-85
2023/12/15 13:40:30;;;;;;;;;;;9.30;99.90;;;;;;5049273;28;19981;-84
2023/12/15 13:42:55;;;;;;;;;;;9.60;99.90;;;;;;5049406;28;19920;-85
2023/12/15 13:45:21;;;;;;;;;;;9.80;99.90;;;;;;5049202;28;19919;-85
2023/12/15 13:47:48;;;;;;;;;;;9.80;99.90;;;;;;5048922;28;20319;-85
2023/12/15 13:50:15;;;;;;;;;;;9.90;99.90;;;;;;5032008;28;20550;-86
2023/12/15 13:52:41;;;;;;;;;;;9.90;99.90;;;;;;5032217;28;19916;-85
2023/12/15 13:55:07;;;;;;;;;;;9.80;99.90;;;;;;5049872;28;19915;-84
2023/12/15 13:57:32;;;;;;;;;;;10.00;99.90;;;;;;5032399;28;20748;-85
2023/12/15 13:59:58;;;;;;;;;;;9.80;99.90;;;;;;5031101;28;19980;-85
2023/12/15 14:02:23;;;;;;;;;;;9.80;99.90;;;;;;5064470;28;19943;-86
2023/12/15 14:04:49;;;;;;;;;;;9.80;99.90;;;;;;5030900;28;19918;-84
2023/12/15 14:07:14;;;;;;;;;;;9.90;99.90;;;;;;5030428;28;20011;-85
2023/12/15 14:09:40;;;;;;;;;;;9.80;99.90;;;;;;5030292;28;19915;-85
2023/12/15 14:12:05;;;;;;;;;;;9.50;99.90;;;;;;5048474;28;20355;-84
2023/12/15 14:14:31;;;;;;;;;;;9.20;99.90;;;;;;5048270;28;19913;-85
2023/12/15 14:16:57;;;;;;;;;;;9.00;99.90;;;;;;5030403;28;20296;-85
2023/12/15 14:19:22;;;;;;;;;;;8.90;99.90;;;;;;5048305;28;19908;-85
2023/12/15 14:21:48;;;;;;;;;;;8.80;99.90;;;;;;5048555;28;19919;-86